FDX9 FMMI-LFPG
Flight info
| Callsign | FDX9 |
|---|---|
| Flight time | N/A |
| Altitude | 32000 |
| Route | KEKIN DCT UVGAD UA401 MG UR775 BERIL/N0502F330 UR775 SOKAR/N0499F340 UR775 LOTER/N0502F330 UR775 UNPAR/N0500F340 UR775 MOGDU UN304 DWA DCT XADOX DCT KONET/N0496F350 UG650 RASKA/N0492F360 T513 EGMEG/N0493F350 G660 JDW/N0489F360 M686 OTEMO T55 KUNKI/N0482F380 P751 METRU DCT TIGRA DCT ARSOB/N0484F400 DCT NUTRO DCT CERVI DCT MOLUS DCT UNKIR/N0482F380 DCT GIVRI DCT TINIL |
| Aircraft | MD11/H-SDE1E2E3FGHIJ2J3J4J5M1RWXY/LB1D1 |
Departure
| Time | 2026-05-08 09:12 |
|---|---|
| Airport | Ivato International Airport (FMMI) |
Arrival
| Time | N/A |
|---|---|
| Airport | Charles de Gaulle International Airport (LFPG) |
| Time | Latitude | Longitude | Altitude | Speed | Heading |
|---|---|---|---|---|---|
| 2026-05-08 08:13 | -18.79871 | 47.47701 | 4174 ft | 0 kts | 252° |
| 2026-05-08 08:57 | -18.79864 | 47.47722 | 4177 ft | 4 kts | 237° |
| 2026-05-08 08:57 | -18.79848 | 47.47743 | 4176 ft | 4 kts | 227° |
| 2026-05-08 08:58 | -18.79838 | 47.47752 | 4175 ft | 2 kts | 278° |
| 2026-05-08 08:58 | -18.79838 | 47.47753 | 4175 ft | 0 kts | 278° |
| 2026-05-08 09:05 | -18.79838 | 47.47750 | 4177 ft | 1 kts | 278° |
| 2026-05-08 09:05 | -18.79835 | 47.47728 | 4177 ft | 5 kts | 278° |
| 2026-05-08 09:05 | -18.79829 | 47.47685 | 4175 ft | 6 kts | 278° |
| 2026-05-08 09:06 | -18.79818 | 47.47646 | 4178 ft | 5 kts | 294° |
| 2026-05-08 09:06 | -18.79795 | 47.47616 | 4180 ft | 5 kts | 318° |
| 2026-05-08 09:06 | -18.79765 | 47.47601 | 4178 ft | 5 kts | 345° |
| 2026-05-08 09:06 | -18.79731 | 47.47601 | 4182 ft | 6 kts | 3° |
| 2026-05-08 09:07 | -18.79679 | 47.47601 | 4182 ft | 9 kts | 349° |
| 2026-05-08 09:07 | -18.79644 | 47.47547 | 4183 ft | 11 kts | 281° |
| 2026-05-08 09:07 | -18.79630 | 47.47456 | 4186 ft | 14 kts | 278° |
| 2026-05-08 09:07 | -18.79613 | 47.47340 | 4188 ft | 18 kts | 279° |
| 2026-05-08 09:08 | -18.79592 | 47.47203 | 4192 ft | 20 kts | 279° |
| 2026-05-08 09:08 | -18.79568 | 47.47045 | 4196 ft | 23 kts | 279° |
| 2026-05-08 09:08 | -18.79544 | 47.46879 | 4201 ft | 22 kts | 279° |
| 2026-05-08 09:08 | -18.79520 | 47.46718 | 4205 ft | 22 kts | 279° |
| 2026-05-08 09:09 | -18.79498 | 47.46575 | 4208 ft | 13 kts | 279° |
| 2026-05-08 09:09 | -18.79470 | 47.46508 | 4211 ft | 6 kts | 310° |
| 2026-05-08 09:09 | -18.79450 | 47.46474 | 4212 ft | 4 kts | 285° |
| 2026-05-08 09:09 | -18.79457 | 47.46460 | 4213 ft | 2 kts | 230° |
| 2026-05-08 09:10 | -18.79465 | 47.46460 | 4213 ft | 1 kts | 187° |
| 2026-05-08 09:10 | -18.79471 | 47.46465 | 4212 ft | 1 kts | 143° |
| 2026-05-08 09:10 | -18.79483 | 47.46496 | 4211 ft | 5 kts | 105° |
| 2026-05-08 09:10 | -18.79484 | 47.46504 | 4211 ft | 0 kts | 102° |
| 2026-05-08 09:11 | -18.79485 | 47.46505 | 4211 ft | 0 kts | 102° |
| 2026-05-08 09:11 | -18.79498 | 47.46583 | 4208 ft | 40 kts | 99° |
| 2026-05-08 09:11 | -18.79581 | 47.47137 | 4193 ft | 113 kts | 99° |
| 2026-05-08 09:12 | -18.79737 | 47.48187 | 4165 ft | 174 kts | 99° |
| 2026-05-08 09:12 | -18.79919 | 47.49560 | 4379 ft | 195 kts | 97° |
| 2026-05-08 09:12 | -18.80110 | 47.50991 | 5099 ft | 194 kts | 97° |
| 2026-05-08 09:12 | -18.80337 | 47.52384 | 5882 ft | 193 kts | 96° |
| 2026-05-08 09:13 | -18.80479 | 47.53309 | 6261 ft | 193 kts | 96° |
| 2026-05-08 09:13 | -18.80654 | 47.54724 | 6740 ft | 196 kts | 90° |
| 2026-05-08 09:13 | -18.80559 | 47.56163 | 7145 ft | 199 kts | 76° |
| 2026-05-08 09:13 | -18.80049 | 47.57564 | 7387 ft | 214 kts | 59° |
| 2026-05-08 09:14 | -18.79045 | 47.58801 | 7525 ft | 232 kts | 39° |
| 2026-05-08 09:14 | -18.77578 | 47.59629 | 7650 ft | 248 kts | 19° |
| 2026-05-08 09:14 | -18.75812 | 47.59813 | 7805 ft | 266 kts | 355° |
| 2026-05-08 09:14 | -18.74012 | 47.59181 | 7929 ft | 283 kts | 330° |
| 2026-05-08 09:15 | -18.72487 | 47.57786 | 8070 ft | 298 kts | 314° |
| 2026-05-08 09:15 | -18.71126 | 47.56075 | 8243 ft | 312 kts | 310° |
| 2026-05-08 09:15 | -18.69799 | 47.54288 | 8902 ft | 314 kts | 311° |
| 2026-05-08 09:15 | -18.68445 | 47.52466 | 9620 ft | 317 kts | 311° |
| 2026-05-08 09:16 | -18.67071 | 47.50638 | 10310 ft | 319 kts | 311° |
| 2026-05-08 09:16 | -18.65631 | 47.48747 | 10456 ft | 343 kts | 311° |
| 2026-05-08 09:16 | -18.64077 | 47.46724 | 10594 ft | 364 kts | 312° |
| 2026-05-08 09:16 | -18.62460 | 47.44627 | 11107 ft | 372 kts | 311° |
| 2026-05-08 09:17 | -18.60813 | 47.42493 | 11696 ft | 378 kts | 311° |
| 2026-05-08 09:17 | -18.59140 | 47.40327 | 12307 ft | 383 kts | 311° |
| 2026-05-08 09:17 | -18.57447 | 47.38141 | 12818 ft | 390 kts | 311° |
| 2026-05-08 09:17 | -18.55725 | 47.35916 | 13464 ft | 393 kts | 310° |
| 2026-05-08 09:18 | -18.53979 | 47.33665 | 13992 ft | 400 kts | 310° |
| 2026-05-08 09:18 | -18.52211 | 47.31386 | 14525 ft | 403 kts | 310° |
| 2026-05-08 09:18 | -18.50446 | 47.29112 | 15042 ft | 407 kts | 310° |
| 2026-05-08 09:18 | -18.48647 | 47.26795 | 15548 ft | 409 kts | 309° |
| 2026-05-08 09:19 | -18.46840 | 47.24480 | 16110 ft | 411 kts | 311° |
| 2026-05-08 09:19 | -18.44822 | 47.22319 | 16558 ft | 414 kts | 318° |
| 2026-05-08 09:19 | -18.42619 | 47.20342 | 17016 ft | 417 kts | 321° |
| 2026-05-08 09:19 | -18.40344 | 47.18446 | 17578 ft | 418 kts | 322° |
| 2026-05-08 09:20 | -18.38078 | 47.16594 | 18185 ft | 417 kts | 322° |
| 2026-05-08 09:20 | -18.35774 | 47.14707 | 18598 ft | 421 kts | 321° |
| 2026-05-08 09:20 | -18.33441 | 47.12835 | 18971 ft | 424 kts | 326° |
| 2026-05-08 09:20 | -18.30829 | 47.11376 | 19332 ft | 426 kts | 338° |
| 2026-05-08 09:21 | -18.28017 | 47.10358 | 19733 ft | 427 kts | 343° |
| 2026-05-08 09:21 | -18.25139 | 47.09526 | 20078 ft | 431 kts | 346° |
| 2026-05-08 09:22 | -18.07459 | 47.04532 | 22305 ft | 447 kts | 345° |
| 2026-05-08 09:23 | -18.04458 | 47.03643 | 22733 ft | 448 kts | 345° |
| 2026-05-08 09:23 | -18.01441 | 47.02747 | 23085 ft | 452 kts | 345° |
| 2026-05-08 09:23 | -17.98404 | 47.01846 | 23469 ft | 455 kts | 345° |
| 2026-05-08 09:23 | -17.95389 | 47.00953 | 23859 ft | 457 kts | 345° |
| 2026-05-08 09:24 | -17.92318 | 47.00044 | 24151 ft | 460 kts | 345° |
| 2026-05-08 09:24 | -17.89234 | 46.99132 | 24549 ft | 461 kts | 344° |
| 2026-05-08 09:24 | -17.86132 | 46.98215 | 24924 ft | 463 kts | 344° |
| 2026-05-08 09:24 | -17.83023 | 46.97296 | 25288 ft | 465 kts | 343° |
| 2026-05-08 09:25 | -17.79912 | 46.96377 | 25737 ft | 465 kts | 343° |
| 2026-05-08 09:25 | -17.76778 | 46.95452 | 26061 ft | 468 kts | 343° |
| 2026-05-08 09:25 | -17.73636 | 46.94524 | 26404 ft | 470 kts | 343° |
| 2026-05-08 09:25 | -17.70478 | 46.93592 | 26747 ft | 472 kts | 343° |
| 2026-05-08 09:26 | -17.67306 | 46.92656 | 27069 ft | 474 kts | 343° |
| 2026-05-08 09:26 | -17.64128 | 46.91718 | 27394 ft | 476 kts | 343° |
| 2026-05-08 09:26 | -17.60969 | 46.90788 | 27665 ft | 478 kts | 343° |
| 2026-05-08 09:26 | -17.57785 | 46.89851 | 27960 ft | 480 kts | 342° |
| 2026-05-08 09:27 | -17.54555 | 46.88901 | 28251 ft | 482 kts | 342° |
| 2026-05-08 09:27 | -17.51319 | 46.87951 | 28544 ft | 484 kts | 342° |
| 2026-05-08 09:27 | -17.48073 | 46.86996 | 28849 ft | 486 kts | 342° |
| 2026-05-08 09:27 | -17.44808 | 46.86036 | 29148 ft | 488 kts | 342° |
| 2026-05-08 09:28 | -17.41521 | 46.85068 | 29452 ft | 490 kts | 343° |
| 2026-05-08 09:28 | -17.38230 | 46.84101 | 29733 ft | 492 kts | 342° |
| 2026-05-08 09:28 | -17.34923 | 46.83129 | 30039 ft | 495 kts | 342° |
| 2026-05-08 09:28 | -17.31618 | 46.82158 | 30292 ft | 497 kts | 342° |
| 2026-05-08 09:29 | -17.28281 | 46.81177 | 30472 ft | 499 kts | 342° |
| 2026-05-08 09:29 | -17.24934 | 46.80194 | 30615 ft | 503 kts | 342° |
| 2026-05-08 09:29 | -17.21555 | 46.79202 | 30810 ft | 505 kts | 342° |
| 2026-05-08 09:29 | -17.18205 | 46.78220 | 31030 ft | 506 kts | 342° |
| 2026-05-08 09:30 | -17.14771 | 46.77213 | 31265 ft | 506 kts | 342° |
| 2026-05-08 09:30 | -17.11424 | 46.76232 | 31505 ft | 507 kts | 342° |
| 2026-05-08 09:30 | -17.07982 | 46.75224 | 31747 ft | 507 kts | 341° |
| 2026-05-08 09:30 | -17.04621 | 46.74240 | 31960 ft | 508 kts | 341° |
| 2026-05-08 09:31 | -17.01205 | 46.73240 | 32029 ft | 509 kts | 341° |
| 2026-05-08 09:31 | -16.94347 | 46.71232 | 32041 ft | 513 kts | 341° |
| 2026-05-08 09:32 | -16.87459 | 46.69218 | 32040 ft | 514 kts | 341° |
| 2026-05-08 09:32 | -16.80580 | 46.67209 | 32039 ft | 514 kts | 341° |
| 2026-05-08 09:33 | -16.73709 | 46.65204 | 32040 ft | 514 kts | 341° |
| 2026-05-08 09:33 | -16.66808 | 46.63193 | 32038 ft | 515 kts | 342° |
| 2026-05-08 09:34 | -16.59888 | 46.61179 | 32034 ft | 515 kts | 342° |
| 2026-05-08 09:34 | -16.53006 | 46.59175 | 32034 ft | 515 kts | 342° |
| 2026-05-08 09:35 | -16.46239 | 46.57205 | 32027 ft | 515 kts | 342° |
| 2026-05-08 09:35 | -16.39328 | 46.55197 | 32020 ft | 516 kts | 342° |
| 2026-05-08 09:36 | -16.32424 | 46.53191 | 32020 ft | 516 kts | 342° |
| 2026-05-08 09:36 | -16.25505 | 46.51182 | 32015 ft | 516 kts | 342° |
| 2026-05-08 09:37 | -16.18587 | 46.49175 | 32013 ft | 516 kts | 342° |
| 2026-05-08 09:37 | -16.11664 | 46.47168 | 32009 ft | 517 kts | 342° |
| 2026-05-08 09:38 | -16.04736 | 46.45160 | 32007 ft | 517 kts | 342° |
| 2026-05-08 09:38 | -15.97847 | 46.43166 | 32005 ft | 517 kts | 342° |
| 2026-05-08 09:39 | -15.90903 | 46.41157 | 32000 ft | 517 kts | 342° |
| 2026-05-08 09:39 | -15.83969 | 46.39153 | 31996 ft | 517 kts | 342° |
| 2026-05-08 09:40 | -15.77027 | 46.37147 | 31993 ft | 517 kts | 342° |
| 2026-05-08 09:40 | -15.70098 | 46.35147 | 31993 ft | 517 kts | 342° |
| 2026-05-08 09:41 | -15.63018 | 46.33722 | 31992 ft | 520 kts | 352° |
| 2026-05-08 09:41 | -15.55823 | 46.33274 | 31991 ft | 522 kts | 356° |
| 2026-05-08 09:42 | -15.48599 | 46.32958 | 31992 ft | 522 kts | 355° |
| 2026-05-08 09:42 | -15.41351 | 46.32553 | 31981 ft | 522 kts | 355° |
| 2026-05-08 09:43 | -15.34093 | 46.32095 | 31982 ft | 522 kts | 355° |
| 2026-05-08 09:43 | -15.26842 | 46.31630 | 31982 ft | 522 kts | 355° |
| 2026-05-08 09:44 | -15.19579 | 46.31169 | 31981 ft | 522 kts | 355° |
| 2026-05-08 09:44 | -15.12364 | 46.30714 | 31977 ft | 522 kts | 355° |
| 2026-05-08 09:45 | -15.05117 | 46.30257 | 31979 ft | 522 kts | 355° |
| 2026-05-08 09:45 | -14.97850 | 46.29800 | 31979 ft | 522 kts | 355° |
| 2026-05-08 09:46 | -14.90597 | 46.29343 | 31974 ft | 522 kts | 355° |
| 2026-05-08 09:46 | -14.83342 | 46.28887 | 31970 ft | 522 kts | 355° |
| 2026-05-08 09:47 | -14.76087 | 46.28431 | 31978 ft | 522 kts | 355° |
| 2026-05-08 09:47 | -14.68877 | 46.27979 | 31976 ft | 522 kts | 355° |
| 2026-05-08 09:48 | -14.61623 | 46.27525 | 31979 ft | 522 kts | 355° |
| 2026-05-08 09:48 | -14.54391 | 46.27074 | 31979 ft | 522 kts | 355° |
| 2026-05-08 09:49 | -14.47135 | 46.26622 | 31979 ft | 522 kts | 355° |
| 2026-05-08 09:49 | -14.39891 | 46.26171 | 31978 ft | 522 kts | 355° |
| 2026-05-08 09:50 | -14.32618 | 46.25719 | 31976 ft | 522 kts | 355° |
| 2026-05-08 09:50 | -14.25362 | 46.25267 | 31978 ft | 522 kts | 355° |
| 2026-05-08 09:51 | -14.18145 | 46.24819 | 31986 ft | 522 kts | 355° |
| 2026-05-08 09:51 | -14.10899 | 46.24369 | 31987 ft | 522 kts | 355° |
| 2026-05-08 09:52 | -14.03631 | 46.23918 | 31980 ft | 521 kts | 355° |
| 2026-05-08 09:52 | -13.96397 | 46.23469 | 31982 ft | 521 kts | 355° |
| 2026-05-08 09:53 | -13.89149 | 46.23020 | 31977 ft | 521 kts | 355° |
| 2026-05-08 09:53 | -13.81930 | 46.22573 | 31980 ft | 521 kts | 355° |
| 2026-05-08 09:54 | -13.74686 | 46.22125 | 31981 ft | 520 kts | 355° |
| 2026-05-08 09:54 | -13.67506 | 46.21681 | 31975 ft | 520 kts | 355° |
| 2026-05-08 09:55 | -13.60269 | 46.21233 | 31979 ft | 520 kts | 355° |
| 2026-05-08 09:55 | -13.53020 | 46.20787 | 31982 ft | 520 kts | 355° |
| 2026-05-08 09:56 | -13.45795 | 46.20342 | 31977 ft | 520 kts | 355° |
| 2026-05-08 09:56 | -13.38563 | 46.19898 | 31978 ft | 520 kts | 355° |
| 2026-05-08 09:57 | -13.27754 | 46.19234 | 31975 ft | 520 kts | 355° |
| 2026-05-08 09:57 | -13.20527 | 46.18790 | 31972 ft | 520 kts | 355° |
| 2026-05-08 09:58 | -13.13342 | 46.18349 | 31982 ft | 520 kts | 355° |
| 2026-05-08 09:58 | -13.06106 | 46.17905 | 31980 ft | 520 kts | 355° |
| 2026-05-08 09:59 | -12.98873 | 46.17462 | 31974 ft | 520 kts | 356° |
| 2026-05-08 09:59 | -12.91658 | 46.17020 | 31976 ft | 519 kts | 356° |
| 2026-05-08 10:00 | -12.84448 | 46.16579 | 31974 ft | 519 kts | 356° |
| 2026-05-08 10:00 | -12.77286 | 46.16141 | 31978 ft | 519 kts | 356° |
| 2026-05-08 10:01 | -12.70070 | 46.15700 | 31981 ft | 518 kts | 356° |
| 2026-05-08 10:01 | -12.64088 | 46.15335 | 31976 ft | 518 kts | 356° |
| 2026-05-08 10:02 | -12.56885 | 46.14895 | 31979 ft | 518 kts | 356° |
| 2026-05-08 10:02 | -12.49687 | 46.14456 | 31973 ft | 518 kts | 356° |
| 2026-05-08 10:03 | -12.42491 | 46.14016 | 31979 ft | 517 kts | 356° |
| 2026-05-08 10:03 | -12.35316 | 46.13579 | 31975 ft | 517 kts | 356° |
| 2026-05-08 10:04 | -12.28137 | 46.13144 | 31972 ft | 517 kts | 356° |
| 2026-05-08 10:04 | -12.20997 | 46.12715 | 31974 ft | 517 kts | 356° |
| 2026-05-08 10:05 | -12.13835 | 46.12287 | 31975 ft | 516 kts | 356° |
| 2026-05-08 10:05 | -12.06643 | 46.11856 | 31976 ft | 516 kts | 356° |
| 2026-05-08 10:06 | -11.99464 | 46.11427 | 31967 ft | 516 kts | 356° |
| 2026-05-08 10:06 | -11.92287 | 46.10997 | 31969 ft | 516 kts | 356° |
| 2026-05-08 10:07 | -11.85114 | 46.10568 | 31977 ft | 516 kts | 356° |
| 2026-05-08 10:07 | -11.77933 | 46.10139 | 31972 ft | 516 kts | 356° |
| 2026-05-08 10:08 | -11.70798 | 46.09712 | 31971 ft | 516 kts | 356° |
| 2026-05-08 10:08 | -11.63614 | 46.09283 | 31967 ft | 516 kts | 356° |
| 2026-05-08 10:09 | -11.56434 | 46.08855 | 31974 ft | 516 kts | 356° |
| 2026-05-08 10:09 | -11.49266 | 46.08427 | 31971 ft | 517 kts | 356° |
| 2026-05-08 10:10 | -11.42119 | 46.08001 | 31964 ft | 516 kts | 356° |
| 2026-05-08 10:10 | -11.34948 | 46.07574 | 31962 ft | 517 kts | 356° |
| 2026-05-08 10:11 | -11.27747 | 46.07146 | 31967 ft | 517 kts | 356° |
| 2026-05-08 10:11 | -11.20595 | 46.06720 | 31973 ft | 517 kts | 356° |
| 2026-05-08 10:12 | -11.13400 | 46.06292 | 31969 ft | 517 kts | 356° |
| 2026-05-08 10:12 | -11.06209 | 46.05864 | 31967 ft | 517 kts | 356° |
| 2026-05-08 10:13 | -10.99070 | 46.05439 | 31963 ft | 517 kts | 356° |
| 2026-05-08 10:13 | -10.91869 | 46.05012 | 31963 ft | 517 kts | 356° |
| 2026-05-08 10:14 | -10.84676 | 46.04584 | 31954 ft | 517 kts | 357° |
| 2026-05-08 10:14 | -10.77472 | 46.04157 | 31967 ft | 519 kts | 357° |
| 2026-05-08 10:15 | -10.70253 | 46.03729 | 31965 ft | 519 kts | 357° |
| 2026-05-08 10:15 | -10.63042 | 46.03301 | 31961 ft | 519 kts | 357° |
| 2026-05-08 10:16 | -10.55873 | 46.02876 | 31960 ft | 519 kts | 357° |
| 2026-05-08 10:16 | -10.48668 | 46.02450 | 31966 ft | 519 kts | 357° |
| 2026-05-08 10:17 | -10.41458 | 46.02022 | 31964 ft | 519 kts | 357° |